createdAt,value
2023-03-06T00:00:51.820Z,4.60
2023-03-06T00:03:19.939Z,4.47
2023-03-06T00:05:49.208Z,4.68
2023-03-06T00:08:17.273Z,4.82
2023-03-06T00:10:45.056Z,5.25
2023-03-06T00:13:15.367Z,4.60
2023-03-06T00:15:44.478Z,5.03
2023-03-06T00:18:12.490Z,4.43
2023-03-06T00:20:41.707Z,5.18
2023-03-06T00:23:09.917Z,5.38
2023-03-06T00:25:38.827Z,4.97
2023-03-06T00:28:06.923Z,5.78
2023-03-06T00:30:34.709Z,5.40
2023-03-06T00:33:03.919Z,5.78
2023-03-06T00:35:31.676Z,4.80
2023-03-06T00:38:00.044Z,5.22
2023-03-06T00:40:28.082Z,7.57
2023-03-06T00:42:55.824Z,5.05
2023-03-06T00:45:23.634Z,4.85
2023-03-06T00:47:51.432Z,5.20
2023-03-06T00:50:20.950Z,5.13
2023-03-06T00:52:49.136Z,5.80
2023-03-06T00:55:17.088Z,6.10
2023-03-06T00:57:44.842Z,6.15
2023-03-06T01:00:14.313Z,5.78
2023-03-06T01:02:42.526Z,5.47
2023-03-06T01:05:12.895Z,5.43
2023-03-06T01:07:42.061Z,6.35
2023-03-06T01:10:11.328Z,5.88
2023-03-06T01:12:39.094Z,6.65
2023-03-06T01:15:08.333Z,5.60
2023-03-06T01:17:36.387Z,6.43
2023-03-06T01:20:05.389Z,7.38
2023-03-06T01:22:33.141Z,7.15
2023-03-06T01:25:02.331Z,7.03
2023-03-06T01:27:30.039Z,7.28
2023-03-06T01:29:57.907Z,6.70
2023-03-06T01:32:25.666Z,6.57
2023-03-06T01:34:53.659Z,6.03
2023-03-06T01:37:21.371Z,6.40
2023-03-06T01:39:49.149Z,6.40
2023-03-06T01:42:18.202Z,6.97
2023-03-06T01:45:02.957Z,6.47
2023-03-06T01:47:30.743Z,6.00
2023-03-06T01:50:00.086Z,5.95
2023-03-06T01:52:32.357Z,6.78
2023-03-06T01:55:03.684Z,6.68
2023-03-06T01:57:36.320Z,6.60
2023-03-06T02:00:09.339Z,6.65
2023-03-06T02:05:07.187Z,6.25
2023-03-06T02:07:35.723Z,6.90
2023-03-06T02:10:04.003Z,6.13
2023-03-06T02:12:33.273Z,6.90
2023-03-06T02:15:01.231Z,5.88
2023-03-06T02:17:29.222Z,5.93
2023-03-06T02:20:03.885Z,6.57
2023-03-06T02:22:37.369Z,5.95
2023-03-06T02:25:10.606Z,6.55
2023-03-06T02:27:40.076Z,6.55
2023-03-06T02:30:10.054Z,6.18
2023-03-06T02:32:37.760Z,6.78
2023-03-06T02:35:07.214Z,6.38
2023-03-06T02:37:34.975Z,6.68
2023-03-06T02:40:12.241Z,6.13
2023-03-06T02:42:47.204Z,6.28
2023-03-06T02:45:18.362Z,6.72
2023-03-06T02:47:46.045Z,6.30
2023-03-06T02:50:13.936Z,6.22
2023-03-06T02:52:41.613Z,6.90
2023-03-06T02:55:10.413Z,6.72
2023-03-06T02:57:38.218Z,7.13
2023-03-06T03:00:09.214Z,7.13
2023-03-06T03:02:37.165Z,6.40
2023-03-06T03:05:05.718Z,7.00
2023-03-06T03:07:33.489Z,6.95
2023-03-06T03:10:01.217Z,6.47
2023-03-06T03:12:29.252Z,7.03
2023-03-06T03:14:57.682Z,6.43
2023-03-06T03:17:26.820Z,6.55
2023-03-06T03:19:54.524Z,7.35
2023-03-06T03:22:22.356Z,6.40
2023-03-06T03:24:50.195Z,6.78
2023-03-06T03:27:18.098Z,6.05
2023-03-06T03:29:45.813Z,6.30
2023-03-06T03:32:13.561Z,6.70
2023-03-06T03:34:42.693Z,6.80
2023-03-06T03:37:10.536Z,6.75
2023-03-06T03:39:38.223Z,5.95
2023-03-06T03:42:06.259Z,7.10
2023-03-06T03:44:33.939Z,6.88
2023-03-06T03:47:01.690Z,6.70
2023-03-06T03:49:29.467Z,6.88
2023-03-06T03:51:58.568Z,6.72
2023-03-06T03:54:26.416Z,7.25
2023-03-06T03:56:54.194Z,6.95
2023-03-06T03:59:21.968Z,7.32
2023-03-06T04:01:49.839Z,8.55
2023-03-06T04:04:17.565Z,7.80
2023-03-06T04:06:45.313Z,7.88
2023-03-06T04:09:14.946Z,7.50
2023-03-06T04:11:42.777Z,7.28
2023-03-06T04:14:10.500Z,6.90
2023-03-06T04:16:38.293Z,7.63
2023-03-06T04:19:05.999Z,7.32
2023-03-06T04:21:33.713Z,7.10
2023-03-06T04:24:01.465Z,7.82
2023-03-06T04:26:30.520Z,8.25
2023-03-06T04:28:58.585Z,7.35
2023-03-06T04:31:26.365Z,7.88
2023-03-06T04:33:54.237Z,7.65
2023-03-06T04:36:28.007Z,7.95
2023-03-06T04:38:56.226Z,8.05
2023-03-06T04:41:24.299Z,8.05
2023-03-06T04:43:53.634Z,8.00
2023-03-06T04:46:21.358Z,7.80
2023-03-06T04:48:49.103Z,8.35
2023-03-06T04:51:16.944Z,7.97
2023-03-06T04:53:44.670Z,8.02
2023-03-06T04:56:12.433Z,8.07
2023-03-06T04:58:40.282Z,8.32
2023-03-06T05:01:09.657Z,8.68
2023-03-06T05:03:37.478Z,8.55
2023-03-06T05:06:05.974Z,8.82
2023-03-06T05:08:33.972Z,7.78
2023-03-06T05:11:03.122Z,8.18
2023-03-06T05:13:31.110Z,8.15
2023-03-06T05:16:02.916Z,8.27
2023-03-06T05:18:32.775Z,8.65
2023-03-06T05:21:00.668Z,8.52
2023-03-06T05:23:29.178Z,8.65
2023-03-06T05:25:57.247Z,8.23
2023-03-06T05:28:25.977Z,8.30
2023-03-06T05:30:53.973Z,8.35
2023-03-06T05:33:21.660Z,8.30
2023-03-06T05:35:51.010Z,7.68
2023-03-06T05:38:19.200Z,8.40
2023-03-06T05:40:47.190Z,8.20
2023-03-06T05:43:14.893Z,8.23
2023-03-06T05:45:42.810Z,7.90
2023-03-06T05:48:13.116Z,8.43
2023-03-06T05:50:41.259Z,8.13
2023-03-06T05:53:10.346Z,8.20
2023-03-06T05:55:38.054Z,8.35
2023-03-06T05:58:05.852Z,8.38
2023-03-06T06:00:33.544Z,7.88
2023-03-06T06:03:02.154Z,8.27
2023-03-06T06:05:30.014Z,8.07
2023-03-06T06:07:57.784Z,8.27
2023-03-06T06:10:26.910Z,7.95
2023-03-06T06:12:54.725Z,7.95
2023-03-06T06:15:22.577Z,8.20
2023-03-06T06:17:50.327Z,8.73
2023-03-06T06:20:18.381Z,7.88
2023-03-06T06:22:46.250Z,7.60
2023-03-06T06:25:14.543Z,8.70
2023-03-06T06:27:43.770Z,8.27
2023-03-06T06:30:13.743Z,8.10
2023-03-06T06:32:41.564Z,8.48
2023-03-06T06:35:11.030Z,8.05
2023-03-06T06:37:38.753Z,8.25
2023-03-06T06:40:08.033Z,8.20
2023-03-06T06:42:39.934Z,8.32
2023-03-06T06:45:11.173Z,8.50
2023-03-06T06:47:41.336Z,9.38
2023-03-06T06:50:11.706Z,7.78
2023-03-06T06:52:39.439Z,8.43
2023-03-06T06:55:08.131Z,7.97
2023-03-06T06:57:35.968Z,8.00
2023-03-06T07:00:04.120Z,8.00
2023-03-06T07:02:33.351Z,7.70
2023-03-06T07:05:04.958Z,7.80
2023-03-06T07:07:35.815Z,8.20
2023-03-06T07:10:05.531Z,8.32
2023-03-06T07:12:35.027Z,7.78
2023-03-06T07:15:02.958Z,7.80
2023-03-06T07:17:31.034Z,8.60
2023-03-06T07:20:00.642Z,8.55
2023-03-06T07:22:31.948Z,7.50
2023-03-06T07:25:04.332Z,7.82
2023-03-06T07:27:32.198Z,8.45
2023-03-06T07:30:00.050Z,9.02
2023-03-06T07:32:28.037Z,9.27
2023-03-06T07:35:12.929Z,8.50
2023-03-06T07:37:45.298Z,8.52
2023-03-06T07:40:13.609Z,8.13
2023-03-06T07:42:41.408Z,8.32
2023-03-06T07:45:09.938Z,8.32
2023-03-06T07:47:37.713Z,8.50
2023-03-06T07:50:07.291Z,8.95
2023-03-06T07:52:35.320Z,8.43
2023-03-06T07:55:05.116Z,7.47
2023-03-06T07:57:32.911Z,7.88
2023-03-06T08:00:00.786Z,8.13
2023-03-06T08:02:28.557Z,8.13
2023-03-06T08:04:56.674Z,8.43
2023-03-06T08:07:24.814Z,8.85
2023-03-06T08:09:52.591Z,8.10
2023-03-06T08:12:21.754Z,8.23
2023-03-06T08:14:49.545Z,8.70
2023-03-06T08:17:17.356Z,8.40
2023-03-06T08:19:45.120Z,7.78
2023-03-06T08:22:13.984Z,9.02
2023-03-06T08:24:42.650Z,8.52
2023-03-06T08:27:10.494Z,8.45
2023-03-06T08:29:39.806Z,8.13
2023-03-06T08:32:07.902Z,7.72
2023-03-06T08:34:35.746Z,7.45
2023-03-06T08:37:03.683Z,8.65
2023-03-06T08:39:31.526Z,7.88
2023-03-06T08:41:59.298Z,8.02
2023-03-06T08:44:26.990Z,7.47
2023-03-06T08:46:57.173Z,7.43
2023-03-06T08:49:24.927Z,8.48
2023-03-06T08:51:52.742Z,7.95
2023-03-06T08:54:20.540Z,8.15
2023-03-06T08:56:48.348Z,7.47
2023-03-06T08:59:16.125Z,8.73
2023-03-06T09:01:45.189Z,7.93
2023-03-06T09:04:14.506Z,8.13
2023-03-06T09:06:44.094Z,7.80
2023-03-06T09:09:12.771Z,8.23
2023-03-06T09:11:41.161Z,8.65
2023-03-06T09:14:09.048Z,8.35
2023-03-06T09:16:36.849Z,8.35
2023-03-06T09:19:04.617Z,8.15
2023-03-06T09:21:34.180Z,8.38
2023-03-06T09:24:02.130Z,8.90
2023-03-06T09:26:43.496Z,8.80
2023-03-06T09:31:40.672Z,8.50
2023-03-06T09:34:08.442Z,8.90
2023-03-06T09:36:49.509Z,8.18
2023-03-06T09:39:23.988Z,8.57
2023-03-06T09:41:52.633Z,8.38
2023-03-06T09:44:23.944Z,9.07
2023-03-06T09:47:23.484Z,8.30
2023-03-06T09:50:04.944Z,8.95
2023-03-06T09:52:40.332Z,8.32
2023-03-06T09:55:13.563Z,8.52
2023-03-06T09:57:50.505Z,8.35
2023-03-06T10:00:24.805Z,8.65
2023-03-06T10:03:01.850Z,9.10
2023-03-06T10:05:37.355Z,8.52
2023-03-06T10:08:17.880Z,8.60
2023-03-06T10:10:51.631Z,8.40
2023-03-06T10:13:26.087Z,9.10
2023-03-06T10:15:59.900Z,8.30
2023-03-06T10:18:27.877Z,8.82
2023-03-06T10:21:13.439Z,9.23
2023-03-06T10:23:54.243Z,8.68
2023-03-06T10:26:26.477Z,8.35
2023-03-06T10:29:17.049Z,10.50
2023-03-06T10:31:49.254Z,9.23
2023-03-06T10:34:23.489Z,10.45
2023-03-06T10:36:51.586Z,10.52
2023-03-06T10:39:23.006Z,10.68
2023-03-06T10:41:51.424Z,10.20
2023-03-06T10:44:22.286Z,11.30
2023-03-06T10:46:52.576Z,10.45
2023-03-06T10:49:33.120Z,10.90
2023-03-06T10:52:03.953Z,10.73
2023-03-06T10:54:35.344Z,10.82
2023-03-06T10:57:25.790Z,11.68
2023-03-06T10:59:55.627Z,11.13
2023-03-06T11:02:31.413Z,10.98
2023-03-06T11:05:01.589Z,9.88
2023-03-06T11:07:30.735Z,10.50
2023-03-06T11:10:09.029Z,10.88
2023-03-06T11:12:39.502Z,10.02
2023-03-06T11:15:23.271Z,10.13
2023-03-06T11:17:54.794Z,9.55
2023-03-06T11:20:24.998Z,9.05
2023-03-06T11:22:56.831Z,9.30
2023-03-06T11:25:31.988Z,12.48
2023-03-06T11:28:03.462Z,12.93
2023-03-06T11:30:40.398Z,10.90
2023-03-06T11:33:19.996Z,11.85
2023-03-06T11:35:55.430Z,9.60
2023-03-06T11:38:32.242Z,10.65
2023-03-06T11:41:05.772Z,9.23
2023-03-06T11:43:40.887Z,11.15
2023-03-06T11:46:18.444Z,9.88
2023-03-06T11:48:53.077Z,10.98
2023-03-06T11:51:24.344Z,9.95
2023-03-06T11:53:53.084Z,9.32
2023-03-06T11:56:32.554Z,9.07
2023-03-06T11:59:36.116Z,9.05
2023-03-06T12:04:42.555Z,7.88
2023-03-06T12:07:22.278Z,7.80
2023-03-06T12:09:57.003Z,8.02
2023-03-06T12:12:43.744Z,8.32
2023-03-06T12:15:29.130Z,7.95
2023-03-06T12:18:11.848Z,7.65
2023-03-06T12:21:00.970Z,7.45
2023-03-06T12:23:45.614Z,8.57
2023-03-06T12:26:35.485Z,7.70
2023-03-06T12:29:17.545Z,7.72
2023-03-06T12:32:02.562Z,7.53
2023-03-06T12:34:47.437Z,7.47
2023-03-06T12:37:26.370Z,7.18
2023-03-06T12:40:10.096Z,7.28
2023-03-06T12:42:57.183Z,6.75
2023-03-06T12:45:33.587Z,6.63
2023-03-06T12:48:02.845Z,6.60
2023-03-06T12:50:32.856Z,5.35
2023-03-06T12:53:04.928Z,6.22
2023-03-06T12:55:40.888Z,6.32
2023-03-06T12:58:51.594Z,6.28
2023-03-06T13:01:49.456Z,6.20
2023-03-06T13:05:00.943Z,5.97
2023-03-06T13:07:39.122Z,6.07
2023-03-06T13:10:17.228Z,5.88
2023-03-06T13:12:57.423Z,6.50
2023-03-06T13:15:39.239Z,6.43
2023-03-06T13:18:40.574Z,6.32
2023-03-06T13:22:00.003Z,5.30
2023-03-06T13:24:29.084Z,5.60
2023-03-06T13:27:05.969Z,6.22
2023-03-06T13:30:21.451Z,6.53
2023-03-06T13:32:52.661Z,5.88
2023-03-06T13:35:49.746Z,5.47
2023-03-06T13:38:35.343Z,5.07
2023-03-06T13:41:35.550Z,4.95
2023-03-06T13:44:30.729Z,4.60
2023-03-06T13:47:01.160Z,4.47
2023-03-06T13:49:30.515Z,4.35
2023-03-06T13:52:09.584Z,4.40
2023-03-06T13:54:51.567Z,4.07
2023-03-06T13:57:38.195Z,3.33
2023-03-06T14:00:29.772Z,3.58
2023-03-06T14:03:35.864Z,3.30
2023-03-06T14:06:56.641Z,3.10
2023-03-06T14:09:29.111Z,3.60
2023-03-06T14:12:03.355Z,3.72
2023-03-06T14:14:40.117Z,3.88
2023-03-06T14:17:16.168Z,3.80
2023-03-06T14:19:44.239Z,4.53
2023-03-06T14:22:18.963Z,6.90
2023-03-06T14:24:57.475Z,5.13
2023-03-06T14:27:43.023Z,4.53
2023-03-06T14:30:20.944Z,4.20
2023-03-06T14:32:50.218Z,4.95
2023-03-06T14:35:35.731Z,5.60
2023-03-06T14:38:06.731Z,5.85
2023-03-06T14:40:37.231Z,5.35
2023-03-06T14:43:14.633Z,5.57
2023-03-06T14:45:56.894Z,6.90
2023-03-06T14:48:26.736Z,7.40
2023-03-06T14:50:56.252Z,7.38
2023-03-06T14:53:28.341Z,7.43
2023-03-06T14:55:58.959Z,7.40
2023-03-06T14:58:36.532Z,7.32
2023-03-06T15:01:07.765Z,8.00
2023-03-06T15:03:46.293Z,7.68
2023-03-06T15:06:19.087Z,8.15
2023-03-06T15:08:50.577Z,8.07
2023-03-06T15:11:18.336Z,8.80
2023-03-06T15:14:01.822Z,8.90
2023-03-06T15:16:31.273Z,9.07
2023-03-06T15:19:00.934Z,10.40
2023-03-06T15:21:31.242Z,9.65
2023-03-06T15:23:59.649Z,9.98
2023-03-06T15:26:31.740Z,9.82
2023-03-06T15:29:09.454Z,10.10
2023-03-06T15:31:39.070Z,9.80
2023-03-06T15:34:23.352Z,9.00
2023-03-06T15:36:55.207Z,9.07
2023-03-06T15:39:37.927Z,9.35
2023-03-06T15:42:18.183Z,9.90
2023-03-06T15:44:51.412Z,9.65
2023-03-06T15:47:19.238Z,9.52
2023-03-06T15:49:49.008Z,8.57
2023-03-06T15:52:16.862Z,8.65
2023-03-06T15:54:44.790Z,9.45
2023-03-06T15:57:21.454Z,8.80
2023-03-06T15:59:51.774Z,8.80
2023-03-06T16:02:21.321Z,8.38
2023-03-06T16:04:49.618Z,9.10
2023-03-06T16:07:18.870Z,8.98
2023-03-06T16:09:46.666Z,9.88
2023-03-06T16:12:19.846Z,9.68
2023-03-06T16:14:48.832Z,10.70
2023-03-06T16:17:18.749Z,10.10
2023-03-06T16:19:46.594Z,9.45
2023-03-06T16:22:14.825Z,10.55
2023-03-06T16:24:43.292Z,9.15
2023-03-06T16:27:17.672Z,10.07
2023-03-06T16:29:45.464Z,10.95
2023-03-06T16:32:13.405Z,10.75
2023-03-06T16:34:42.657Z,9.15
2023-03-06T16:37:13.905Z,9.32
2023-03-06T16:39:41.822Z,9.68
2023-03-06T16:42:09.768Z,9.57
2023-03-06T16:44:37.529Z,9.45
2023-03-06T16:47:05.865Z,9.30
2023-03-06T16:49:33.732Z,8.93
2023-03-06T16:52:04.513Z,9.43
2023-03-06T16:54:32.455Z,8.00
2023-03-06T16:57:00.215Z,7.88
2023-03-06T16:59:28.102Z,8.00
2023-03-06T17:01:55.924Z,7.28
2023-03-06T17:04:23.726Z,7.07
2023-03-06T17:06:52.884Z,7.13
2023-03-06T17:09:22.043Z,6.88
2023-03-06T17:11:49.935Z,7.60
2023-03-06T17:14:17.689Z,7.45
2023-03-06T17:16:46.401Z,7.68
2023-03-06T17:19:15.356Z,7.53
2023-03-06T17:21:43.785Z,7.35
2023-03-06T17:24:11.558Z,8.55
2023-03-06T17:26:40.721Z,8.43
2023-03-06T17:29:09.284Z,8.70
2023-03-06T17:31:37.072Z,8.27
2023-03-06T17:34:05.117Z,8.88
2023-03-06T17:36:33.666Z,9.73
2023-03-06T17:39:03.302Z,9.40
2023-03-06T17:41:32.978Z,9.45
2023-03-06T17:44:02.718Z,8.75
2023-03-06T17:46:31.855Z,9.23
2023-03-06T17:48:59.714Z,9.50
2023-03-06T17:51:27.731Z,9.48
2023-03-06T17:53:55.728Z,10.18
2023-03-06T17:56:23.483Z,10.68
2023-03-06T17:58:51.190Z,10.10
2023-03-06T18:01:22.720Z,10.60
2023-03-06T18:03:52.053Z,9.35
2023-03-06T18:06:22.168Z,9.65
2023-03-06T18:08:52.853Z,9.25
2023-03-06T18:11:21.811Z,10.38
2023-03-06T18:13:50.118Z,9.57
2023-03-06T18:16:22.892Z,9.82
2023-03-06T18:18:52.838Z,9.82
2023-03-06T18:21:21.267Z,9.45
2023-03-06T18:23:49.299Z,9.48
2023-03-06T18:26:19.053Z,9.60
2023-03-06T18:28:48.742Z,10.07
2023-03-06T18:31:17.556Z,9.75
2023-03-06T18:33:48.997Z,9.85
2023-03-06T18:36:17.298Z,9.88
2023-03-06T18:38:45.701Z,10.73
2023-03-06T18:41:14.578Z,10.23
2023-03-06T18:43:42.454Z,9.30
2023-03-06T18:46:10.399Z,10.60
2023-03-06T18:48:39.158Z,9.73
2023-03-06T18:51:09.889Z,9.05
2023-03-06T18:53:37.915Z,9.50
2023-03-06T18:56:06.380Z,10.15
2023-03-06T18:58:34.320Z,9.55
2023-03-06T19:01:06.909Z,9.57
2023-03-06T19:03:35.048Z,9.65
2023-03-06T19:06:05.826Z,9.02
2023-03-06T19:08:35.631Z,10.30
2023-03-06T19:11:04.819Z,10.18
2023-03-06T19:13:33.103Z,10.40
2023-03-06T19:16:01.583Z,9.48
2023-03-06T19:18:30.232Z,10.00
2023-03-06T19:21:08.524Z,10.25
2023-03-06T19:23:37.992Z,10.02
2023-03-06T19:26:07.463Z,10.60
2023-03-06T19:28:36.066Z,10.93
2023-03-06T19:31:09.252Z,10.52
2023-03-06T19:33:37.913Z,10.27
2023-03-06T19:36:07.031Z,10.10
2023-03-06T19:38:35.046Z,10.15
2023-03-06T19:41:04.308Z,10.00
2023-03-06T19:43:32.333Z,9.98
2023-03-06T19:46:03.687Z,9.25
2023-03-06T19:48:31.485Z,10.95
2023-03-06T19:51:04.460Z,10.25
2023-03-06T19:56:06.562Z,10.07
2023-03-06T19:58:34.954Z,9.98
2023-03-06T20:01:07.331Z,10.27
2023-03-06T20:03:35.130Z,11.05
2023-03-06T20:06:06.195Z,11.05
2023-03-06T20:08:34.066Z,9.68
2023-03-06T20:11:01.829Z,11.13
2023-03-06T20:13:31.118Z,11.10
2023-03-06T20:16:02.837Z,11.05
2023-03-06T20:18:30.633Z,10.75
2023-03-06T20:20:59.506Z,11.27
2023-03-06T20:23:27.550Z,10.75
2023-03-06T20:25:55.406Z,10.32
2023-03-06T20:28:23.901Z,10.57
2023-03-06T20:30:53.105Z,11.13
2023-03-06T20:33:22.269Z,11.82
2023-03-06T20:35:50.214Z,10.95
2023-03-06T20:38:17.998Z,10.25
2023-03-06T20:40:45.863Z,11.25
2023-03-06T20:43:13.579Z,10.80
2023-03-06T20:45:41.278Z,10.63
2023-03-06T20:48:10.424Z,11.32
2023-03-06T20:50:38.192Z,10.35
2023-03-06T20:53:05.925Z,11.07
2023-03-06T20:55:37.509Z,10.15
2023-03-06T20:58:05.245Z,10.38
2023-03-06T21:00:33.099Z,9.75
2023-03-06T21:03:00.889Z,10.48
2023-03-06T21:05:30.110Z,11.52
2023-03-06T21:07:57.918Z,11.68
2023-03-06T21:10:25.715Z,10.85
2023-03-06T21:12:53.502Z,10.93
2023-03-06T21:15:21.633Z,11.82
2023-03-06T21:17:49.632Z,11.75
2023-03-06T21:20:17.749Z,11.63
2023-03-06T21:22:46.949Z,12.60
2023-03-06T21:25:14.913Z,12.75
2023-03-06T21:27:42.756Z,13.05
2023-03-06T21:30:11.970Z,12.40
2023-03-06T21:32:39.799Z,12.05
2023-03-06T21:35:08.214Z,12.00
2023-03-06T21:37:36.049Z,12.15
2023-03-06T21:40:06.738Z,12.65
2023-03-06T21:42:36.189Z,13.52
2023-03-06T21:45:04.512Z,12.65
2023-03-06T21:47:37.848Z,13.05
2023-03-06T21:50:06.468Z,12.68
2023-03-06T21:52:34.282Z,12.32
2023-03-06T21:55:02.209Z,13.15
2023-03-06T21:57:31.482Z,12.57
2023-03-06T21:59:59.326Z,13.68
2023-03-06T22:02:27.122Z,12.13
2023-03-06T22:04:55.243Z,13.18
2023-03-06T22:07:23.438Z,12.68
2023-03-06T22:09:53.670Z,13.77
2023-03-06T22:12:21.726Z,13.60
2023-03-06T22:14:51.833Z,11.80
2023-03-06T22:17:19.800Z,13.30
2023-03-06T22:19:49.446Z,12.88
2023-03-06T22:22:17.291Z,12.98
2023-03-06T22:24:45.153Z,13.35
2023-03-06T22:27:12.947Z,13.60
2023-03-06T22:29:40.773Z,13.45
2023-03-06T22:32:10.021Z,14.07
2023-03-06T22:34:38.188Z,13.70
2023-03-06T22:37:06.217Z,13.23
2023-03-06T22:39:34.138Z,14.38
2023-03-06T22:42:02.038Z,13.18
2023-03-06T22:44:29.859Z,13.65
2023-03-06T22:46:57.859Z,13.70
2023-03-06T22:49:27.296Z,15.52
2023-03-06T22:51:55.121Z,27.83
2023-03-06T22:54:22.981Z,28.10
2023-03-06T22:56:50.863Z,18.23
2023-03-06T22:59:18.691Z,14.00
2023-03-06T23:01:46.724Z,14.13
2023-03-06T23:04:14.643Z,13.10
2023-03-06T23:06:45.891Z,12.00
2023-03-06T23:09:15.916Z,14.77
2023-03-06T23:11:43.899Z,14.95
2023-03-06T23:14:13.110Z,15.75
2023-03-06T23:16:40.911Z,15.40
2023-03-06T23:19:08.799Z,15.55
2023-03-06T23:21:36.570Z,13.43
2023-03-06T23:24:06.904Z,14.13
2023-03-06T23:26:35.343Z,13.43
2023-03-06T23:29:04.216Z,13.63
2023-03-06T23:31:32.624Z,13.38
2023-03-06T23:34:02.348Z,13.43
2023-03-06T23:36:31.187Z,13.27
2023-03-06T23:39:00.210Z,14.95
2023-03-06T23:41:29.374Z,13.02
2023-03-06T23:43:57.251Z,12.75
2023-03-06T23:46:25.120Z,12.60
2023-03-06T23:48:53.245Z,12.30
2023-03-06T23:51:22.588Z,12.82
2023-03-06T23:53:55.882Z,12.63
2023-03-06T23:56:24.548Z,13.05
2023-03-06T23:58:54.338Z,12.25
